createdAt,value
2023-01-10T00:01:07.044Z,98546.75
2023-01-10T00:03:38.721Z,98541.94
2023-01-10T00:06:10.399Z,98547.50
2023-01-10T00:08:46.492Z,98557.16
2023-01-10T00:11:36.697Z,98558.13
2023-01-10T00:14:12.206Z,98548.44
2023-01-10T00:16:43.925Z,98568.56
2023-01-10T00:19:18.462Z,98553.69
2023-01-10T00:21:51.243Z,98557.47
2023-01-10T00:24:23.745Z,98553.88
2023-01-10T00:26:55.445Z,98548.63
2023-01-10T00:29:29.173Z,98559.63
2023-01-10T00:32:01.195Z,98564.72
2023-01-10T00:34:33.181Z,98571.97
2023-01-10T00:37:04.909Z,98573.56
2023-01-10T00:39:36.658Z,98572.59
2023-01-10T00:42:28.955Z,98577.22
2023-01-10T00:45:00.701Z,98575.78
2023-01-10T00:47:32.416Z,98587.75
2023-01-10T00:50:11.869Z,98586.25
2023-01-10T00:52:46.165Z,98589.53
2023-01-10T00:55:20.702Z,98593.63
2023-01-10T00:57:55.134Z,98584.66
2023-01-10T01:00:26.964Z,98596.31
2023-01-10T01:02:58.670Z,98596.16
2023-01-10T01:05:30.478Z,98609.59
2023-01-10T01:08:02.195Z,98617.00
2023-01-10T01:10:33.923Z,98616.84
2023-01-10T01:13:17.847Z,98627.84
2023-01-10T01:15:49.967Z,98630.66
2023-01-10T01:18:21.970Z,98634.88
2023-01-10T01:21:02.353Z,98638.50
2023-01-10T01:23:34.939Z,98648.00
2023-01-10T01:26:06.949Z,98639.16
2023-01-10T01:28:38.719Z,98645.75
2023-01-10T01:31:10.852Z,98650.50
2023-01-10T01:33:42.789Z,98662.47
2023-01-10T01:36:14.552Z,98668.25
2023-01-10T01:38:46.284Z,98661.69
2023-01-10T01:41:36.287Z,98669.09
2023-01-10T01:44:16.707Z,98671.75
2023-01-10T01:47:26.629Z,98677.00
2023-01-10T01:49:58.532Z,98678.44
2023-01-10T01:52:34.991Z,98683.84
2023-01-10T01:55:10.545Z,98689.44
2023-01-10T01:57:42.786Z,98687.97
2023-01-10T02:00:14.918Z,98684.81
2023-01-10T02:03:03.014Z,98702.19
2023-01-10T02:05:40.635Z,98708.25
2023-01-10T02:08:13.518Z,98700.53
2023-01-10T02:11:09.231Z,98702.19
2023-01-10T02:13:43.857Z,98717.63
2023-01-10T02:16:15.761Z,98722.19
2023-01-10T02:18:47.430Z,98714.34
2023-01-10T02:22:02.788Z,98719.22
2023-01-10T02:24:40.161Z,98723.94
2023-01-10T02:27:11.866Z,98724.94
2023-01-10T02:30:02.224Z,98725.91
2023-01-10T02:33:04.643Z,98736.41
2023-01-10T02:36:08.924Z,98734.59
2023-01-10T02:39:11.009Z,98738.19
2023-01-10T02:41:53.202Z,98740.34
2023-01-10T02:44:48.292Z,98746.72
2023-01-10T02:47:20.259Z,98751.94
2023-01-10T02:49:52.477Z,98754.91
2023-01-10T02:52:30.465Z,98767.03
2023-01-10T02:55:03.909Z,98766.06
2023-01-10T02:58:04.956Z,98773.75
2023-01-10T03:01:02.497Z,98781.19
2023-01-10T03:04:03.671Z,98784.31
2023-01-10T03:07:14.146Z,98782.50
2023-01-10T03:10:06.809Z,98787.75
2023-01-10T03:13:02.592Z,98792.53
2023-01-10T03:15:37.575Z,98802.34
2023-01-10T03:18:17.102Z,98807.44
2023-01-10T03:20:51.734Z,98820.53
2023-01-10T03:23:25.571Z,98812.69
2023-01-10T03:25:57.801Z,98821.22
2023-01-10T03:28:32.014Z,98831.72
2023-01-10T03:31:10.882Z,98842.56
2023-01-10T03:33:42.967Z,98849.75
2023-01-10T03:36:50.114Z,98860.22
2023-01-10T03:39:43.205Z,98856.50
2023-01-10T03:42:23.310Z,98864.88
2023-01-10T03:45:13.534Z,98867.50
2023-01-10T03:47:48.609Z,98874.09
2023-01-10T03:50:23.791Z,98868.03
2023-01-10T03:52:56.843Z,98880.00
2023-01-10T03:55:30.669Z,98886.88
2023-01-10T03:58:03.780Z,98888.22
2023-01-10T04:00:36.001Z,98883.78
2023-01-10T04:03:09.799Z,98889.50
2023-01-10T04:05:41.800Z,98895.44
2023-01-10T04:08:13.542Z,98894.91
2023-01-10T04:10:45.205Z,98894.53
2023-01-10T04:13:17.083Z,98903.09
2023-01-10T04:15:48.851Z,98904.38
2023-01-10T04:18:20.565Z,98912.09
2023-01-10T04:20:52.407Z,98919.94
2023-01-10T04:23:24.066Z,98922.75
2023-01-10T04:25:55.743Z,98925.38
2023-01-10T04:28:27.503Z,98925.50
2023-01-10T04:30:59.303Z,98932.22
2023-01-10T04:33:30.970Z,98942.72
2023-01-10T04:36:02.634Z,98946.19
2023-01-10T04:38:34.477Z,98960.94
2023-01-10T04:41:06.212Z,98969.78
2023-01-10T04:43:37.900Z,98968.16
2023-01-10T04:46:09.733Z,98970.97
2023-01-10T04:48:41.725Z,98976.53
2023-01-10T04:51:13.634Z,98989.66
2023-01-10T04:53:45.374Z,98987.16
2023-01-10T04:56:19.712Z,99003.59
2023-01-10T04:58:54.086Z,98998.84
2023-01-10T05:01:26.662Z,99007.41
2023-01-10T05:03:58.481Z,99011.00
2023-01-10T05:06:30.160Z,99018.59
2023-01-10T05:09:01.874Z,99024.13
2023-01-10T05:11:33.820Z,99029.97
2023-01-10T05:14:05.641Z,99028.47
2023-01-10T05:16:37.405Z,99038.28
2023-01-10T05:19:09.469Z,99040.09
2023-01-10T05:21:41.267Z,99043.69
2023-01-10T05:24:13.150Z,99041.88
2023-01-10T05:26:44.849Z,99052.69
2023-01-10T05:29:16.535Z,99058.72
2023-01-10T05:31:51.300Z,99065.34
2023-01-10T05:34:22.911Z,99057.34
2023-01-10T05:36:54.621Z,99070.44
2023-01-10T05:39:29.118Z,99068.63
2023-01-10T05:42:00.925Z,99073.81
2023-01-10T05:44:32.625Z,99080.84
2023-01-10T05:47:04.533Z,99092.16
2023-01-10T05:49:36.240Z,99093.97
2023-01-10T05:52:08.049Z,99091.47
2023-01-10T05:54:40.987Z,99108.03
2023-01-10T05:57:12.707Z,99112.00
2023-01-10T05:59:44.456Z,99113.81
2023-01-10T06:02:16.274Z,99118.63
2023-01-10T06:04:48.003Z,99130.31
2023-01-10T06:07:19.818Z,99134.88
2023-01-10T06:09:51.545Z,99134.50
2023-01-10T06:12:23.298Z,99150.38
2023-01-10T06:14:55.025Z,99151.22
2023-01-10T06:17:27.057Z,99149.16
2023-01-10T06:19:58.777Z,99162.41
2023-01-10T06:22:30.506Z,99176.09
2023-01-10T06:25:03.348Z,99176.75
2023-01-10T06:27:35.053Z,99176.59
2023-01-10T06:30:07.720Z,99180.75
2023-01-10T06:32:40.509Z,99186.66
2023-01-10T06:35:12.214Z,99187.66
2023-01-10T06:37:44.670Z,99193.88
2023-01-10T06:40:16.705Z,99209.75
2023-01-10T06:42:48.485Z,99213.19
2023-01-10T06:45:20.390Z,99221.88
2023-01-10T06:47:52.107Z,99225.78
2023-01-10T06:50:24.376Z,99234.44
2023-01-10T06:53:04.835Z,99232.50
2023-01-10T06:55:36.521Z,99229.91
2023-01-10T06:58:08.704Z,99238.72
2023-01-10T07:00:41.666Z,99240.25
2023-01-10T07:03:13.328Z,99245.50
2023-01-10T07:05:45.032Z,99246.47
2023-01-10T07:08:16.800Z,99252.66
2023-01-10T07:10:51.421Z,99265.13
2023-01-10T07:13:23.083Z,99262.63
2023-01-10T07:16:05.472Z,99271.03
2023-01-10T07:18:39.163Z,99272.69
2023-01-10T07:21:11.437Z,99286.25
2023-01-10T07:23:46.115Z,99278.81
2023-01-10T07:26:19.154Z,99289.56
2023-01-10T07:28:51.504Z,99285.84
2023-01-10T07:31:24.421Z,99286.00
2023-01-10T07:33:56.228Z,99287.94
2023-01-10T07:36:27.913Z,99293.88
2023-01-10T07:38:59.702Z,99305.03
2023-01-10T07:41:31.419Z,99299.13
2023-01-10T07:44:03.940Z,99312.91
2023-01-10T07:46:37.790Z,99322.00
2023-01-10T07:49:10.044Z,99319.78
2023-01-10T07:51:42.153Z,99328.19
2023-01-10T07:54:14.930Z,99334.94
2023-01-10T07:56:50.488Z,99333.97
2023-01-10T07:59:22.195Z,99335.63
2023-01-10T08:01:56.783Z,99330.53
2023-01-10T08:04:28.517Z,99338.41
2023-01-10T08:07:00.252Z,99330.25
2023-01-10T08:09:31.957Z,99330.78
2023-01-10T08:12:03.809Z,99330.34
2023-01-10T08:14:35.520Z,99337.81
2023-01-10T08:17:07.276Z,99346.09
2023-01-10T08:19:40.959Z,99350.19
2023-01-10T08:22:12.772Z,99368.31
2023-01-10T08:24:44.618Z,99364.28
2023-01-10T08:27:16.350Z,99370.34
2023-01-10T08:29:48.045Z,99368.97
2023-01-10T08:32:19.768Z,99377.50
2023-01-10T08:34:51.597Z,99375.88
2023-01-10T08:37:23.421Z,99382.03
2023-01-10T08:39:55.142Z,99383.31
2023-01-10T08:42:26.899Z,99380.56
2023-01-10T08:45:00.548Z,99390.59
2023-01-10T08:47:32.384Z,99392.06
2023-01-10T08:50:05.351Z,99393.69
2023-01-10T08:52:38.199Z,99403.06
2023-01-10T08:55:13.647Z,99404.22
2023-01-10T08:57:45.454Z,99404.56
2023-01-10T09:00:17.610Z,99414.56
2023-01-10T09:02:52.542Z,99410.25
2023-01-10T09:05:27.776Z,99413.31
2023-01-10T09:08:02.113Z,99403.38
2023-01-10T09:10:33.913Z,99415.97
2023-01-10T09:13:05.918Z,99422.47
2023-01-10T09:15:40.951Z,99429.53
2023-01-10T09:18:14.603Z,99437.66
2023-01-10T09:20:46.746Z,99435.78
2023-01-10T09:23:20.750Z,99434.66
2023-01-10T09:25:54.564Z,99438.44
2023-01-10T09:28:26.684Z,99443.00
2023-01-10T09:30:58.822Z,99453.97
2023-01-10T09:33:45.300Z,99448.25
2023-01-10T09:36:18.243Z,99462.69
2023-01-10T09:38:49.941Z,99447.81
2023-01-10T09:41:44.078Z,99445.81
2023-01-10T09:44:39.702Z,99450.69
2023-01-10T09:47:22.870Z,99465.88
2023-01-10T09:50:23.606Z,99466.00
2023-01-10T09:53:12.525Z,99476.38
2023-01-10T09:55:50.238Z,99473.75
2023-01-10T09:58:29.576Z,99477.56
2023-01-10T10:01:15.558Z,99487.78
2023-01-10T10:04:15.259Z,99489.69
2023-01-10T10:06:50.176Z,99493.09
2023-01-10T10:09:43.105Z,99487.56
2023-01-10T10:12:32.947Z,99476.28
2023-01-10T10:15:07.399Z,99478.44
2023-01-10T10:18:01.685Z,99472.88
2023-01-10T10:20:45.099Z,99480.22
2023-01-10T10:23:44.555Z,99474.72
2023-01-10T10:26:46.312Z,99480.59
2023-01-10T10:29:34.200Z,99470.03
2023-01-10T10:32:15.002Z,99477.16
2023-01-10T10:35:07.421Z,99487.91
2023-01-10T10:37:48.169Z,99489.59
2023-01-10T10:40:23.113Z,99496.03
2023-01-10T10:42:57.283Z,99497.91
2023-01-10T10:45:52.523Z,99501.72
2023-01-10T10:48:25.812Z,99504.97
2023-01-10T10:51:09.723Z,99507.81
2023-01-10T10:53:41.500Z,99507.56
2023-01-10T10:56:17.842Z,99509.19
2023-01-10T10:58:53.858Z,99506.97
2023-01-10T11:01:26.894Z,99505.53
2023-01-10T11:04:02.325Z,99503.25
2023-01-10T11:06:38.500Z,99512.53
2023-01-10T11:09:10.293Z,99509.50
2023-01-10T11:11:47.096Z,99515.09
2023-01-10T11:14:38.578Z,99511.41
2023-01-10T11:17:28.981Z,99527.34
2023-01-10T11:20:04.311Z,99539.72
2023-01-10T11:22:48.260Z,99544.78
2023-01-10T11:25:23.004Z,99541.44
2023-01-10T11:27:57.084Z,99536.56
2023-01-10T11:30:32.344Z,99539.75
2023-01-10T11:33:17.476Z,99531.94
2023-01-10T11:36:02.558Z,99534.22
2023-01-10T11:38:35.348Z,99535.41
2023-01-10T11:41:25.253Z,99552.94
2023-01-10T11:44:17.188Z,99563.56
2023-01-10T11:46:50.166Z,99569.25
2023-01-10T11:49:33.078Z,99566.63
2023-01-10T11:52:14.428Z,99567.53
2023-01-10T11:54:46.808Z,99570.63
2023-01-10T11:57:26.543Z,99566.63
2023-01-10T12:00:08.788Z,99563.44
2023-01-10T12:02:47.344Z,99566.53
2023-01-10T12:05:23.703Z,99569.59
2023-01-10T12:07:56.195Z,99576.81
2023-01-10T12:10:29.229Z,99574.31
2023-01-10T12:13:14.565Z,99573.47
2023-01-10T12:15:47.040Z,99575.06
2023-01-10T12:18:19.588Z,99573.31
2023-01-10T12:20:52.829Z,99583.34
2023-01-10T12:23:25.572Z,99576.78
2023-01-10T12:26:11.018Z,99573.81
2023-01-10T12:28:54.147Z,99579.66
2023-01-10T12:31:26.771Z,99565.56
2023-01-10T12:34:15.478Z,99569.06
2023-01-10T12:36:58.577Z,99587.38
2023-01-10T12:39:36.964Z,99588.47
2023-01-10T12:42:30.050Z,99594.81
2023-01-10T12:45:16.768Z,99600.63
2023-01-10T12:48:00.828Z,99606.53
2023-01-10T12:50:39.269Z,99615.03
2023-01-10T12:53:38.519Z,99617.50
2023-01-10T12:56:14.869Z,99614.47
2023-01-10T12:59:11.022Z,99609.53
2023-01-10T13:01:44.806Z,99613.50
2023-01-10T13:04:22.528Z,99614.72
2023-01-10T13:06:55.124Z,99613.28
2023-01-10T13:09:30.405Z,99614.56
2023-01-10T13:12:17.409Z,99620.91
2023-01-10T13:15:21.594Z,99623.81
2023-01-10T13:18:18.027Z,99629.59
2023-01-10T13:20:49.960Z,99641.19
2023-01-10T13:23:29.965Z,99644.38
2023-01-10T13:26:09.573Z,99649.69
2023-01-10T13:29:00.373Z,99650.28
2023-01-10T13:31:33.926Z,99659.00
2023-01-10T13:34:11.057Z,99654.53
2023-01-10T13:36:50.169Z,99661.59
2023-01-10T13:39:23.843Z,99655.13
2023-01-10T13:42:17.058Z,99659.84
2023-01-10T13:45:01.168Z,99663.19
2023-01-10T13:47:46.926Z,99660.44
2023-01-10T13:50:24.468Z,99670.56
2023-01-10T13:53:02.475Z,99670.47
2023-01-10T13:55:40.202Z,99670.91
2023-01-10T13:58:15.536Z,99677.88
2023-01-10T14:01:14.347Z,99675.50
2023-01-10T14:03:58.485Z,99690.66
2023-01-10T14:06:30.242Z,99688.34
2023-01-10T14:09:12.268Z,99699.69
2023-01-10T14:11:46.662Z,99709.56
2023-01-10T14:14:27.389Z,99707.91
2023-01-10T14:17:19.316Z,99708.16
2023-01-10T14:20:13.743Z,99714.81
2023-01-10T14:22:58.861Z,99710.53
2023-01-10T14:25:31.967Z,99724.81
2023-01-10T14:28:05.509Z,99735.06
2023-01-10T14:30:39.417Z,99739.34
2023-01-10T14:33:22.181Z,99744.06
2023-01-10T14:35:58.654Z,99744.22
2023-01-10T14:38:34.245Z,99750.84
2023-01-10T14:41:13.624Z,99752.53
2023-01-10T14:43:55.116Z,99751.81
2023-01-10T14:46:38.915Z,99746.72
2023-01-10T14:49:30.125Z,99756.81
2023-01-10T14:52:19.646Z,99751.44
2023-01-10T14:55:03.001Z,99754.72
2023-01-10T14:57:34.711Z,99750.28
2023-01-10T15:00:09.364Z,99747.66
2023-01-10T15:02:45.805Z,99737.44
2023-01-10T15:05:19.424Z,99734.53
2023-01-10T15:07:51.168Z,99737.31
2023-01-10T15:10:30.522Z,99727.47
2023-01-10T15:13:05.491Z,99735.38
2023-01-10T15:15:39.583Z,99737.31
2023-01-10T15:18:40.268Z,99748.38
2023-01-10T15:21:14.481Z,99745.88
2023-01-10T15:23:47.015Z,99756.41
2023-01-10T15:26:27.536Z,99754.34
2023-01-10T15:29:19.402Z,99749.06
2023-01-10T15:31:53.511Z,99760.69
2023-01-10T15:34:29.799Z,99750.88
2023-01-10T15:37:02.855Z,99761.38
2023-01-10T15:39:39.235Z,99768.13
2023-01-10T15:42:12.545Z,99778.38
2023-01-10T15:44:52.459Z,99785.31
2023-01-10T15:47:41.879Z,99779.22
2023-01-10T15:50:27.369Z,99776.44
2023-01-10T15:53:05.343Z,99782.69
2023-01-10T15:55:46.299Z,99778.53
2023-01-10T15:58:35.867Z,99788.47
2023-01-10T16:01:07.693Z,99786.13
2023-01-10T16:03:45.873Z,99794.53
2023-01-10T16:06:25.725Z,99790.09
2023-01-10T16:09:04.075Z,99781.66
2023-01-10T16:12:06.345Z,99784.69
2023-01-10T16:14:38.211Z,99779.97
2023-01-10T16:17:12.286Z,99780.50
2023-01-10T16:19:43.978Z,99783.00
2023-01-10T16:22:19.138Z,99780.06
2023-01-10T16:24:52.498Z,99779.91
2023-01-10T16:27:30.727Z,99781.31
2023-01-10T16:30:02.574Z,99777.47
2023-01-10T16:32:34.487Z,99787.53
2023-01-10T16:35:06.771Z,99790.41
2023-01-10T16:37:41.556Z,99795.09
2023-01-10T16:40:35.665Z,99794.81
2023-01-10T16:43:25.633Z,99805.59
2023-01-10T16:46:04.491Z,99807.00
2023-01-10T16:48:36.204Z,99801.63
2023-01-10T16:51:18.292Z,99807.81
2023-01-10T16:53:50.643Z,99806.03
2023-01-10T16:56:32.283Z,99809.38
2023-01-10T16:59:06.209Z,99801.06
2023-01-10T17:01:42.070Z,99800.06
2023-01-10T17:04:22.604Z,99799.41
2023-01-10T17:06:54.374Z,99803.81
2023-01-10T17:09:28.803Z,99808.94
2023-01-10T17:12:05.818Z,99801.75
2023-01-10T17:14:38.844Z,99809.63
2023-01-10T17:17:11.999Z,99811.94
2023-01-10T17:19:47.717Z,99803.78
2023-01-10T17:22:19.395Z,99814.28
2023-01-10T17:24:51.331Z,99811.06
2023-01-10T17:27:23.362Z,99803.28
2023-01-10T17:29:55.155Z,99803.94
2023-01-10T17:32:26.846Z,99808.63
2023-01-10T17:34:58.677Z,99805.69
2023-01-10T17:37:30.472Z,99809.66
2023-01-10T17:40:05.700Z,99815.84
2023-01-10T17:42:37.456Z,99821.81
2023-01-10T17:45:11.873Z,99811.88
2023-01-10T17:47:43.518Z,99816.88
2023-01-10T17:50:19.400Z,99813.31
2023-01-10T17:52:53.163Z,99811.66
2023-01-10T17:55:29.653Z,99815.34
2023-01-10T17:58:02.854Z,99816.28
2023-01-10T18:00:36.844Z,99821.69
2023-01-10T18:03:09.405Z,99832.56
2023-01-10T18:05:51.650Z,99830.19
2023-01-10T18:08:24.150Z,99830.31
2023-01-10T18:11:00.542Z,99829.47
2023-01-10T18:13:32.257Z,99829.88
2023-01-10T18:16:04.388Z,99828.09
2023-01-10T18:18:36.193Z,99822.84
2023-01-10T18:21:14.232Z,99826.53
2023-01-10T18:23:46.949Z,99822.25
2023-01-10T18:26:21.414Z,99825.16
2023-01-10T18:28:54.181Z,99823.97
2023-01-10T18:31:26.180Z,99828.41
2023-01-10T18:33:58.023Z,99816.53
2023-01-10T18:36:30.231Z,99823.94
2023-01-10T18:39:03.675Z,99813.84
2023-01-10T18:41:37.767Z,99817.16
2023-01-10T18:44:11.601Z,99812.03
2023-01-10T18:46:43.572Z,99824.44
2023-01-10T18:49:17.413Z,99826.25
2023-01-10T18:51:49.392Z,99827.69
2023-01-10T18:54:21.384Z,99829.59
2023-01-10T18:57:25.682Z,99832.03
2023-01-10T18:59:58.477Z,99839.28
2023-01-10T19:02:30.617Z,99836.53
2023-01-10T19:05:09.733Z,99830.84
2023-01-10T19:07:41.662Z,99824.56
2023-01-10T19:10:14.773Z,99822.78
2023-01-10T19:12:46.629Z,99825.38
2023-01-10T19:15:18.424Z,99825.53
2023-01-10T19:17:57.327Z,99826.47
2023-01-10T19:20:30.231Z,99830.44
2023-01-10T19:23:02.130Z,99830.53
2023-01-10T19:25:35.291Z,99839.25
2023-01-10T19:31:13.828Z,99847.34
2023-01-10T19:33:50.649Z,99849.28
2023-01-10T19:36:29.595Z,99844.28
2023-01-10T19:39:01.751Z,99850.47
2023-01-10T19:41:35.799Z,99847.16
2023-01-10T19:44:15.982Z,99842.03
2023-01-10T19:46:49.133Z,99842.16
2023-01-10T19:49:21.069Z,99841.31
2023-01-10T19:51:53.687Z,99833.56
2023-01-10T19:54:31.084Z,99838.59
2023-01-10T19:57:03.613Z,99840.50
2023-01-10T19:59:38.635Z,99845.13
2023-01-10T20:02:13.728Z,99847.63
2023-01-10T20:04:46.112Z,99838.81
2023-01-10T20:07:18.779Z,99846.66
2023-01-10T20:09:52.810Z,99846.81
2023-01-10T20:12:25.354Z,99838.34
2023-01-10T20:14:57.163Z,99838.59
2023-01-10T20:17:30.064Z,99838.81
2023-01-10T20:20:02.151Z,99830.03
2023-01-10T20:22:34.941Z,99832.41
2023-01-10T20:25:07.345Z,99828.34
2023-01-10T20:27:39.078Z,99826.47
2023-01-10T20:30:14.188Z,99833.59
2023-01-10T20:32:45.935Z,99835.25
2023-01-10T20:35:22.113Z,99835.25
2023-01-10T20:37:53.786Z,99823.13
2023-01-10T20:40:27.775Z,99826.22
2023-01-10T20:42:59.464Z,99822.06
2023-01-10T20:45:36.561Z,99819.94
2023-01-10T20:48:08.671Z,99818.63
2023-01-10T20:50:46.269Z,99818.63
2023-01-10T20:53:18.632Z,99802.94
2023-01-10T20:55:59.372Z,99807.31
2023-01-10T20:58:33.025Z,99818.00
2023-01-10T21:01:05.171Z,99811.00
2023-01-10T21:03:41.374Z,99813.59
2023-01-10T21:06:15.009Z,99806.13
2023-01-10T21:08:49.246Z,99810.88
2023-01-10T21:11:21.430Z,99810.41
2023-01-10T21:13:53.146Z,99816.88
2023-01-10T21:16:25.625Z,99814.03
2023-01-10T21:19:01.378Z,99815.44
2023-01-10T21:21:33.094Z,99811.41
2023-01-10T21:24:04.960Z,99809.38
2023-01-10T21:26:36.775Z,99814.41
2023-01-10T21:29:08.478Z,99810.81
2023-01-10T21:31:40.239Z,99812.00
2023-01-10T21:34:12.086Z,99801.66
2023-01-10T21:36:47.903Z,99808.91
2023-01-10T21:39:20.787Z,99806.41
2023-01-10T21:42:11.040Z,99808.41
2023-01-10T21:44:42.723Z,99805.91
2023-01-10T21:47:14.433Z,99804.38
2023-01-10T21:49:46.143Z,99792.25
2023-01-10T21:52:18.061Z,99794.03
2023-01-10T21:54:49.780Z,99801.97
2023-01-10T21:57:23.283Z,99804.47
2023-01-10T21:59:55.000Z,99801.03
2023-01-10T22:02:32.595Z,99799.16
2023-01-10T22:05:04.586Z,99800.94
2023-01-10T22:07:36.462Z,99800.44
2023-01-10T22:10:09.000Z,99802.91
2023-01-10T22:12:42.868Z,99807.19
2023-01-10T22:15:14.638Z,99809.72
2023-01-10T22:17:48.214Z,99808.50
2023-01-10T22:20:19.915Z,99812.78
2023-01-10T22:22:51.694Z,99808.59
2023-01-10T22:25:24.496Z,99811.09
2023-01-10T22:27:56.345Z,99811.09
2023-01-10T22:30:28.154Z,99807.66
2023-01-10T22:33:02.712Z,99796.47
2023-01-10T22:35:36.359Z,99791.25
2023-01-10T22:38:08.026Z,99795.78
2023-01-10T22:40:39.707Z,99796.72
2023-01-10T22:43:12.057Z,99795.06
2023-01-10T22:45:43.869Z,99794.22
2023-01-10T22:48:20.693Z,99784.94
2023-01-10T22:50:52.372Z,99791.94
2023-01-10T22:53:24.106Z,99787.78
2023-01-10T22:55:55.849Z,99776.63
2023-01-10T22:58:27.752Z,99774.13
2023-01-10T23:00:59.466Z,99765.56
2023-01-10T23:03:31.164Z,99771.63
2023-01-10T23:06:02.883Z,99766.41
2023-01-10T23:08:34.946Z,99764.88
2023-01-10T23:11:08.264Z,99758.06
2023-01-10T23:13:39.927Z,99761.75
2023-01-10T23:16:15.339Z,99759.97
2023-01-10T23:18:50.164Z,99752.25
2023-01-10T23:21:21.985Z,99756.75
2023-01-10T23:23:55.011Z,99756.16
2023-01-10T23:26:26.755Z,99741.53
2023-01-10T23:28:58.461Z,99747.00
2023-01-10T23:31:31.896Z,99745.31
2023-01-10T23:34:04.275Z,99748.16
2023-01-10T23:36:35.998Z,99738.16
2023-01-10T23:39:08.439Z,99730.31
2023-01-10T23:41:40.112Z,99733.06
2023-01-10T23:44:14.591Z,99720.97
2023-01-10T23:46:46.499Z,99723.69
2023-01-10T23:49:18.139Z,99717.63
2023-01-10T23:51:49.861Z,99711.47
2023-01-10T23:54:21.520Z,99706.44
2023-01-10T23:56:53.681Z,99701.22
2023-01-10T23:59:26.030Z,99702.31
